createdAt,value
2019-04-29T00:00:50.529Z,37.28
2019-04-29T00:03:19.677Z,40.10
2019-04-29T00:05:48.361Z,41.85
2019-04-29T00:08:17.124Z,37.90
2019-04-29T00:10:46.104Z,38.70
2019-04-29T00:13:15.122Z,38.28
2019-04-29T00:16:04.099Z,42.95
2019-04-29T00:18:44.986Z,43.65
2019-04-29T00:21:13.893Z,45.28
2019-04-29T00:23:42.599Z,42.98
2019-04-29T00:26:11.132Z,46.23
2019-04-29T00:28:40.226Z,44.90
2019-04-29T00:31:08.666Z,44.90
2019-04-29T00:33:38.485Z,41.23
2019-04-29T00:36:08.902Z,39.10
2019-04-29T00:38:58.615Z,41.13
2019-04-29T00:41:46.689Z,37.93
2019-04-29T00:44:16.364Z,38.55
2019-04-29T00:46:45.474Z,36.35
2019-04-29T00:49:14.174Z,36.58
2019-04-29T00:51:42.598Z,36.50
2019-04-29T00:54:30.894Z,39.18
2019-04-29T00:56:59.279Z,38.40
2019-04-29T00:59:27.975Z,38.35
2019-04-29T01:01:56.825Z,38.10
2019-04-29T01:04:25.638Z,34.73
2019-04-29T01:06:54.422Z,35.92
2019-04-29T01:09:24.593Z,37.60
2019-04-29T01:11:53.207Z,41.55
2019-04-29T01:14:21.988Z,37.40
2019-04-29T01:16:50.707Z,37.38
2019-04-29T01:19:19.719Z,36.25
2019-04-29T01:21:49.361Z,35.85
2019-04-29T01:24:18.125Z,39.83
2019-04-29T01:27:12.372Z,36.60
2019-04-29T01:29:41.201Z,37.98
2019-04-29T01:32:10.202Z,39.98
2019-04-29T01:34:54.239Z,40.75
2019-04-29T01:37:49.851Z,40.20
2019-04-29T01:40:38.885Z,39.45
2019-04-29T01:43:07.320Z,43.80
2019-04-29T01:45:35.944Z,45.08
2019-04-29T01:48:04.594Z,40.90
2019-04-29T01:50:32.948Z,45.20
2019-04-29T01:53:01.678Z,41.92
2019-04-29T01:55:30.072Z,44.23
2019-04-29T01:57:58.717Z,40.43
2019-04-29T02:00:27.126Z,42.33
2019-04-29T02:02:55.919Z,42.58
2019-04-29T02:05:24.478Z,40.98
2019-04-29T02:07:53.471Z,40.70
2019-04-29T02:10:30.791Z,39.75
2019-04-29T02:12:59.407Z,44.55
2019-04-29T02:15:28.178Z,41.88
2019-04-29T02:17:56.912Z,41.05
2019-04-29T02:20:25.544Z,40.85
2019-04-29T02:23:12.655Z,45.33
2019-04-29T02:25:42.735Z,41.45
2019-04-29T02:28:11.179Z,43.25
2019-04-29T02:30:42.935Z,44.45
2019-04-29T02:33:11.593Z,40.25
2019-04-29T02:35:40.688Z,41.28
2019-04-29T02:38:13.943Z,41.65
2019-04-29T02:40:51.865Z,46.05
2019-04-29T02:43:24.434Z,43.85
2019-04-29T02:45:53.075Z,43.98
2019-04-29T02:48:21.648Z,43.83
2019-04-29T02:50:50.335Z,44.48
2019-04-29T02:53:18.896Z,43.08
2019-04-29T02:55:50.840Z,44.50
2019-04-29T02:58:35.287Z,45.17
2019-04-29T03:01:23.321Z,44.23
2019-04-29T03:04:02.656Z,46.75
2019-04-29T03:06:31.236Z,43.05
2019-04-29T03:08:59.960Z,46.60
2019-04-29T03:11:30.213Z,44.80
2019-04-29T03:13:58.664Z,47.55
2019-04-29T03:16:27.519Z,47.88
2019-04-29T03:19:00.896Z,47.20
2019-04-29T03:21:46.884Z,42.75
2019-04-29T03:24:15.575Z,44.83
2019-04-29T03:26:44.151Z,45.80
2019-04-29T03:29:22.031Z,42.53
2019-04-29T03:31:53.034Z,41.95
2019-04-29T03:34:22.098Z,44.50
2019-04-29T03:36:51.753Z,47.45
2019-04-29T03:39:20.454Z,47.10
2019-04-29T03:41:51.263Z,49.80
2019-04-29T03:44:19.760Z,47.53
2019-04-29T03:46:48.687Z,45.70
2019-04-29T03:49:17.068Z,45.75
2019-04-29T03:51:45.665Z,48.35
2019-04-29T03:54:14.418Z,46.98
2019-04-29T03:56:44.284Z,44.05
2019-04-29T03:59:12.726Z,45.80
2019-04-29T04:01:52.334Z,47.45
2019-04-29T04:04:39.264Z,46.28
2019-04-29T04:07:37.634Z,47.27
2019-04-29T04:10:07.839Z,47.53
2019-04-29T04:12:36.352Z,51.98
2019-04-29T04:15:05.409Z,48.20
2019-04-29T04:17:40.297Z,48.45
2019-04-29T04:20:09.545Z,46.40
2019-04-29T04:22:47.749Z,47.53
2019-04-29T04:25:17.361Z,46.33
2019-04-29T04:27:46.239Z,51.92
2019-04-29T04:30:15.256Z,49.60
2019-04-29T04:32:44.390Z,45.38
2019-04-29T04:35:13.589Z,49.10
2019-04-29T04:40:17.480Z,48.58
2019-04-29T04:42:48.299Z,51.23
2019-04-29T04:45:17.432Z,50.65
2019-04-29T04:47:46.062Z,49.35
2019-04-29T04:50:15.034Z,49.55
2019-04-29T04:52:43.854Z,50.83
2019-04-29T04:55:13.367Z,53.30
2019-04-29T04:57:42.049Z,57.50
2019-04-29T05:00:20.280Z,57.90
2019-04-29T05:02:49.050Z,58.80
2019-04-29T05:05:22.331Z,57.98
2019-04-29T05:07:52.388Z,62.83
2019-04-29T05:10:21.428Z,64.10
2019-04-29T05:12:50.134Z,63.30
2019-04-29T05:15:18.799Z,65.57
2019-04-29T05:17:48.254Z,73.90
2019-04-29T05:20:17.541Z,70.85
2019-04-29T05:23:01.078Z,68.67
2019-04-29T05:25:32.608Z,74.00
2019-04-29T05:30:29.739Z,70.28
2019-04-29T05:32:58.646Z,73.90
2019-04-29T05:35:40.434Z,77.55
2019-04-29T05:38:24.253Z,71.90
2019-04-29T05:40:56.824Z,73.37
2019-04-29T05:43:35.165Z,69.85
2019-04-29T05:46:21.741Z,71.75
2019-04-29T05:48:49.424Z,67.82
2019-04-29T05:51:49.828Z,71.72
2019-04-29T05:54:18.998Z,65.52
2019-04-29T05:56:47.698Z,63.98
2019-04-29T05:59:16.935Z,63.73
2019-04-29T06:01:47.192Z,59.42
2019-04-29T06:04:18.045Z,54.80
2019-04-29T06:06:46.825Z,53.13
2019-04-29T06:09:16.629Z,49.15
2019-04-29T06:11:46.269Z,50.23
2019-04-29T06:14:14.793Z,46.15
2019-04-29T06:16:43.909Z,44.53
2019-04-29T06:19:12.407Z,44.80
2019-04-29T06:21:44.980Z,42.62
2019-04-29T06:24:13.771Z,39.42
2019-04-29T06:26:43.708Z,40.40
2019-04-29T06:29:12.588Z,41.65
2019-04-29T06:31:41.451Z,43.45
2019-04-29T06:34:09.978Z,42.15
2019-04-29T06:36:38.872Z,38.63
2019-04-29T06:39:08.088Z,40.95
2019-04-29T06:41:40.498Z,39.30
2019-04-29T06:44:15.943Z,39.98
2019-04-29T06:49:10.862Z,39.48
2019-04-29T06:51:40.400Z,38.10
2019-04-29T06:54:09.576Z,37.80
2019-04-29T06:56:38.412Z,38.47
2019-04-29T06:59:07.588Z,36.70
2019-04-29T07:01:38.668Z,36.28
2019-04-29T07:04:07.489Z,39.10
2019-04-29T07:06:36.604Z,36.93
2019-04-29T07:09:06.556Z,35.20
2019-04-29T07:11:36.514Z,35.43
2019-04-29T07:14:06.541Z,36.35
2019-04-29T07:16:36.047Z,35.30
2019-04-29T07:19:04.871Z,35.03
2019-04-29T07:21:33.869Z,37.15
2019-04-29T07:24:02.957Z,36.70
2019-04-29T07:26:32.104Z,35.00
2019-04-29T07:29:02.152Z,38.45
2019-04-29T07:31:33.187Z,42.58
2019-04-29T07:34:01.911Z,44.98
2019-04-29T07:36:31.180Z,41.23
2019-04-29T07:39:00.128Z,47.27
2019-04-29T07:41:32.020Z,52.40
2019-04-29T07:44:02.554Z,48.92
2019-04-29T07:47:01.825Z,51.50
2019-04-29T07:49:24.669Z,70.92
2019-04-29T07:51:53.533Z,69.75
2019-04-29T07:54:22.766Z,68.97
2019-04-29T07:56:52.088Z,74.75
2019-04-29T07:59:20.938Z,76.80
2019-04-29T08:01:49.646Z,65.45
2019-04-29T08:04:19.070Z,66.47
2019-04-29T08:06:48.081Z,58.28
2019-04-29T08:09:17.119Z,59.18
2019-04-29T08:11:47.496Z,61.77
2019-04-29T08:14:18.165Z,57.40
2019-04-29T08:16:47.420Z,59.48
2019-04-29T08:19:16.598Z,54.27
2019-04-29T08:21:49.616Z,50.03
2019-04-29T08:24:17.047Z,43.17
2019-04-29T08:26:47.750Z,48.53
2019-04-29T08:31:44.964Z,57.45
2019-04-29T08:34:14.145Z,54.95
2019-04-29T08:36:43.858Z,52.53
2019-04-29T08:39:15.119Z,41.03
2019-04-29T08:41:45.214Z,46.02
2019-04-29T08:44:38.339Z,49.15
2019-04-29T08:47:18.061Z,51.35
2019-04-29T08:49:47.062Z,52.80
2019-04-29T08:52:16.546Z,52.98
2019-04-29T08:54:45.255Z,46.98
2019-04-29T08:57:14.231Z,39.70
2019-04-29T08:59:43.556Z,37.80
2019-04-29T09:02:12.481Z,32.53
2019-04-29T09:04:52.739Z,38.23
2019-04-29T09:09:41.957Z,32.50
2019-04-29T09:12:10.629Z,31.60
2019-04-29T09:14:39.897Z,33.75
2019-04-29T09:17:19.729Z,34.73
2019-04-29T09:19:39.631Z,29.32
2019-04-29T09:22:10.027Z,29.92
2019-04-29T09:24:43.588Z,30.57
2019-04-29T09:27:16.794Z,29.55
2019-04-29T09:29:46.513Z,27.20
2019-04-29T09:32:15.147Z,25.08
2019-04-29T09:34:43.683Z,26.25
2019-04-29T09:37:12.516Z,25.23
2019-04-29T09:39:43.930Z,24.52
2019-04-29T09:42:31.003Z,24.65
2019-04-29T09:45:24.054Z,23.60
2019-04-29T09:47:51.967Z,23.18
2019-04-29T09:50:20.971Z,22.45
2019-04-29T09:52:49.839Z,21.80
2019-04-29T09:55:20.311Z,22.02
2019-04-29T09:57:49.733Z,20.30
2019-04-29T10:00:29.763Z,22.33
2019-04-29T10:03:11.380Z,21.17
2019-04-29T10:05:50.209Z,21.95
2019-04-29T10:08:18.912Z,20.60
2019-04-29T10:10:47.828Z,21.60
2019-04-29T10:13:17.072Z,21.25
2019-04-29T10:16:03.642Z,21.68
2019-04-29T10:18:47.999Z,22.35
2019-04-29T10:21:21.589Z,21.70
2019-04-29T10:23:48.115Z,21.02
2019-04-29T10:26:17.389Z,20.08
2019-04-29T10:28:52.835Z,20.95
2019-04-29T10:31:21.692Z,21.15
2019-04-29T10:33:54.678Z,21.00
2019-04-29T10:36:21.917Z,21.33
2019-04-29T10:38:52.709Z,20.57
2019-04-29T10:41:31.674Z,21.55
2019-04-29T10:44:22.220Z,20.02
2019-04-29T10:47:24.026Z,20.77
2019-04-29T10:49:57.945Z,19.90
2019-04-29T10:52:27.070Z,19.48
2019-04-29T10:54:56.751Z,21.50
2019-04-29T10:57:29.012Z,21.07
2019-04-29T11:00:02.901Z,19.70
2019-04-29T11:02:38.777Z,20.17
2019-04-29T11:05:57.415Z,19.62
2019-04-29T11:08:25.228Z,19.55
2019-04-29T11:11:02.135Z,19.05
2019-04-29T11:13:25.469Z,20.02
2019-04-29T11:15:54.068Z,18.40
2019-04-29T11:18:25.049Z,19.75
2019-04-29T11:20:55.529Z,20.05
2019-04-29T11:23:42.123Z,19.98
2019-04-29T11:26:30.334Z,18.90
2019-04-29T11:28:59.862Z,18.80
2019-04-29T11:31:29.940Z,18.77
2019-04-29T11:34:18.329Z,18.42
2019-04-29T11:36:47.496Z,18.40
2019-04-29T11:39:16.972Z,18.85
2019-04-29T11:41:45.449Z,20.08
2019-04-29T11:44:14.349Z,21.25
2019-04-29T11:46:44.545Z,20.45
2019-04-29T11:49:16.916Z,19.30
2019-04-29T11:52:08.690Z,19.60
2019-04-29T11:54:19.979Z,20.00
2019-04-29T11:56:48.895Z,18.80
2019-04-29T11:59:35.917Z,21.05
2019-04-29T12:02:44.763Z,21.25
2019-04-29T12:05:31.595Z,21.68
2019-04-29T12:08:03.810Z,19.95
2019-04-29T12:10:31.728Z,19.37
2019-04-29T12:13:03.043Z,17.67
2019-04-29T12:15:40.126Z,18.73
2019-04-29T12:18:23.740Z,18.02
2019-04-29T12:21:04.615Z,18.80
2019-04-29T12:23:33.731Z,18.95
2019-04-29T12:26:04.967Z,16.90
2019-04-29T12:28:37.937Z,17.92
2019-04-29T12:31:12.764Z,18.05
2019-04-29T12:33:47.401Z,17.70
2019-04-29T12:36:16.645Z,17.82
2019-04-29T12:39:04.049Z,18.17
2019-04-29T12:41:51.394Z,17.10
2019-04-29T12:44:35.051Z,17.67
2019-04-29T12:46:59.011Z,16.65
2019-04-29T12:49:29.855Z,17.73
2019-04-29T12:52:00.264Z,18.25
2019-04-29T12:54:29.846Z,18.05
2019-04-29T12:56:58.805Z,18.80
2019-04-29T12:59:30.598Z,18.40
2019-04-29T13:02:19.979Z,18.23
2019-04-29T13:05:15.948Z,18.37
2019-04-29T13:08:09.861Z,16.35
2019-04-29T13:10:47.967Z,15.38
2019-04-29T13:13:20.139Z,15.28
2019-04-29T13:16:07.954Z,15.23
2019-04-29T13:18:48.991Z,14.35
2019-04-29T13:21:16.248Z,15.50
2019-04-29T13:23:59.041Z,14.20
2019-04-29T13:26:27.324Z,15.15
2019-04-29T13:28:58.863Z,15.25
2019-04-29T13:31:20.149Z,15.00
2019-04-29T13:33:51.059Z,14.20
2019-04-29T13:36:26.257Z,14.10
2019-04-29T13:38:50.535Z,16.20
2019-04-29T13:41:24.423Z,14.80
2019-04-29T13:43:52.513Z,14.85
2019-04-29T13:46:33.513Z,13.78
2019-04-29T13:49:20.886Z,13.43
2019-04-29T13:51:52.321Z,15.20
2019-04-29T13:54:22.789Z,15.10
2019-04-29T13:56:55.911Z,14.80
2019-04-29T13:59:49.126Z,15.10
2019-04-29T14:02:31.176Z,14.98
2019-04-29T14:05:00.185Z,13.30
2019-04-29T14:07:30.189Z,13.35
2019-04-29T14:09:59.300Z,14.33
2019-04-29T14:15:00.308Z,15.50
2019-04-29T14:17:31.812Z,16.27
2019-04-29T14:20:00.948Z,15.10
2019-04-29T14:22:30.187Z,15.10
2019-04-29T14:24:58.650Z,13.70
2019-04-29T14:27:27.757Z,14.50
2019-04-29T14:29:56.222Z,14.35
2019-04-29T14:32:35.912Z,13.72
2019-04-29T14:35:11.843Z,15.60
2019-04-29T14:37:54.424Z,16.65
2019-04-29T14:43:27.167Z,17.02
2019-04-29T14:45:55.696Z,15.53
2019-04-29T14:48:41.770Z,15.78
2019-04-29T14:51:01.082Z,15.00
2019-04-29T14:53:31.744Z,11.10
2019-04-29T14:58:30.119Z,9.30
2019-04-29T15:01:36.281Z,10.60
2019-04-29T15:04:18.055Z,9.78
2019-04-29T15:06:39.038Z,10.55
2019-04-29T15:09:16.751Z,10.43
2019-04-29T15:11:59.695Z,10.85
2019-04-29T15:15:02.244Z,11.43
2019-04-29T15:18:15.531Z,11.60
2019-04-29T15:21:06.228Z,11.70
2019-04-29T15:23:33.453Z,11.97
2019-04-29T15:26:02.281Z,11.28
2019-04-29T15:28:33.969Z,12.13
2019-04-29T15:31:02.543Z,12.40
2019-04-29T15:33:34.736Z,12.07
2019-04-29T15:36:04.923Z,10.75
2019-04-29T15:38:34.091Z,11.18
2019-04-29T15:41:05.454Z,12.25
2019-04-29T15:43:46.429Z,10.30
2019-04-29T15:46:11.447Z,10.30
2019-04-29T15:48:38.028Z,9.93
2019-04-29T15:51:09.111Z,11.33
2019-04-29T15:53:39.005Z,12.55
2019-04-29T15:58:42.295Z,10.28
2019-04-29T16:01:17.102Z,11.12
2019-04-29T16:03:41.962Z,11.10
2019-04-29T16:06:33.908Z,12.07
2019-04-29T16:09:30.428Z,12.35
2019-04-29T16:12:20.860Z,11.93
2019-04-29T16:14:49.705Z,11.63
2019-04-29T16:17:20.641Z,12.28
2019-04-29T16:19:48.324Z,13.70
2019-04-29T16:22:20.059Z,15.10
2019-04-29T16:24:46.983Z,14.38
2019-04-29T16:27:15.731Z,14.38
2019-04-29T16:29:46.297Z,20.05
2019-04-29T16:32:23.933Z,17.12
2019-04-29T16:34:52.392Z,15.08
2019-04-29T16:37:24.950Z,15.43
2019-04-29T16:39:52.775Z,14.28
2019-04-29T16:42:31.597Z,15.48
2019-04-29T16:45:00.051Z,15.30
2019-04-29T16:47:29.827Z,15.75
2019-04-29T16:50:04.588Z,16.20
2019-04-29T16:52:29.409Z,16.75
2019-04-29T16:54:59.103Z,16.67
2019-04-29T16:57:31.509Z,17.50
2019-04-29T17:00:00.195Z,18.17
2019-04-29T17:02:30.607Z,16.85
2019-04-29T17:04:59.398Z,17.10
2019-04-29T17:07:30.765Z,17.12
2019-04-29T17:10:17.475Z,19.32
2019-04-29T17:12:49.179Z,18.60
2019-04-29T17:15:25.021Z,17.85
2019-04-29T17:17:48.685Z,17.23
2019-04-29T17:20:17.563Z,17.92
2019-04-29T17:22:46.034Z,17.42
2019-04-29T17:25:16.648Z,18.65
2019-04-29T17:30:56.051Z,19.37
2019-04-29T17:35:13.769Z,11.33
2019-04-29T17:35:14.860Z,19.23
2019-04-29T17:36:11.519Z,21.52
2019-04-29T17:38:40.686Z,18.67
2019-04-29T17:41:09.176Z,20.52
2019-04-29T17:43:47.687Z,16.87
2019-04-29T17:46:38.477Z,20.32
2019-04-29T17:49:28.220Z,19.77
2019-04-29T17:52:01.477Z,18.77
2019-04-29T17:54:29.847Z,19.27
2019-04-29T17:57:26.403Z,19.92
2019-04-29T18:00:05.130Z,20.75
2019-04-29T18:02:45.554Z,19.92
2019-04-29T18:05:54.470Z,19.07
2019-04-29T18:08:19.455Z,18.67
2019-04-29T18:10:52.370Z,18.23
2019-04-29T18:13:24.587Z,17.42
2019-04-29T18:16:01.638Z,17.20
2019-04-29T18:18:43.193Z,17.82
2019-04-29T18:21:28.097Z,18.30
2019-04-29T18:24:12.750Z,19.30
2019-04-29T18:26:52.698Z,18.02
2019-04-29T18:29:21.472Z,19.42
2019-04-29T18:31:50.272Z,20.65
2019-04-29T18:34:18.860Z,21.75
2019-04-29T18:36:47.761Z,20.08
2019-04-29T18:39:24.979Z,19.50
2019-04-29T18:41:51.161Z,21.10
2019-04-29T18:44:20.100Z,22.35
2019-04-29T18:46:53.630Z,21.57
2019-04-29T18:49:19.631Z,20.00
2019-04-29T18:51:48.357Z,19.87
2019-04-29T18:54:17.092Z,18.87
2019-04-29T18:56:45.720Z,19.52
2019-04-29T18:59:15.991Z,19.42
2019-04-29T19:01:47.680Z,19.65
2019-04-29T19:04:53.396Z,18.48
2019-04-29T19:07:20.338Z,18.45
2019-04-29T19:09:49.086Z,19.77
2019-04-29T19:12:17.826Z,19.30
2019-04-29T19:14:47.851Z,17.75
2019-04-29T19:17:16.973Z,19.20
2019-04-29T19:19:45.623Z,18.67
2019-04-29T19:22:15.686Z,21.93
2019-04-29T19:24:46.542Z,21.62
2019-04-29T19:27:15.054Z,21.42
2019-04-29T19:29:44.617Z,22.25
2019-04-29T19:32:13.406Z,20.50
2019-04-29T19:34:43.334Z,22.13
